Weather observations for the past three days for
Snyder, Winston Field Airport
Imperial (Metric)
Date Time (cdt) Wind (mph) Vis. (mi.) Weather Sky Cond. Temperature (ºF) Relative Humidity Wind Chill (°F) Heat Index (°F) Pressure Precipitation (in)
Air Dwpt 6 hour altimeter (in) sea level (mb) 1 hr 3 hr 6 hr
Max. Min.
04 02:55 S 13 G 17 10.00 Fair CLR 62.8 46 55% 29.93 0.0
04 02:35 S 13 G 18 10.00 Fair CLR 63 46.4 55% 29.93 0.0
04 02:15 S 13 10.00 Fair CLR 62.8 46.2 55% 29.95 0.0
04 01:55 S 10 10.00 Fair CLR 63 46 54% 29.95 0.0
04 01:35 S 9 10.00 Fair CLR 63.5 45.9 53% 29.95 0.0
04 01:15 S 9 10.00 Fair CLR 63.9 45.5 51% 29.96 0.0
04 00:55 S 10 10.00 Fair CLR 64.4 45.5 50% 29.96 0.0
04 00:35 S 10 10.00 Fair CLR 64.9 45 49% 29.96 0.0
04 00:15 S 10 10.00 Fair CLR 65.1 44.6 48% 29.97 0.0
03 23:55 S 10 10.00 Fair CLR 65.8 44.1 45% 29.97 0.0
03 23:35 S 13 10.00 Fair CLR 66.2 43.9 45% 29.98 0.0
03 23:15 S 12 10.00 Fair CLR 66.2 44.1 45% 29.98 0.0
03 22:55 S 10 10.00 Fair CLR 66.6 44.6 45% 29.98 0.0
03 22:35 S 9 10.00 Fair CLR 67.5 44.2 43% 29.99 0.0
03 22:15 S 10 10.00 Fair CLR 68.2 44.1 42% 29.98 0.0
03 21:55 S 8 10.00 Fair CLR 68.7 44.4 42% 29.98 0.0
03 21:35 S 8 10.00 Fair CLR 69.4 44.4 41% 29.98 0.0
03 21:15 S 10 10.00 Fair CLR 70.2 43.9 39% 29.98 0.0
03 20:55 S 10 10.00 Fair CLR 71.2 43.5 37% 29.98 0.0
03 20:35 S 13 G 17 10.00 Fair CLR 72.3 43.2 35% 29.97 0.0
03 20:15 S 12 G 17 10.00 Fair CLR 73.2 42.8 34% 29.96 0.0
03 19:55 S 14 10.00 Fair CLR 73.6 42.8 33% 29.97 0.0
03 19:35 S 13 G 21 10.00 Fair CLR 74.3 43 33% 29.97 0.0
03 19:15 S 13 G 17 10.00 Fair CLR 74.5 42.8 32% 29.98 0.0
03 18:55 S 15 G 22 10.00 Fair CLR 75 42.3 31% 77 29.99 0.0
03 18:35 S 14 G 18 10.00 Fair CLR 75.6 42.1 30% 77 29.98 0.0
03 18:15 S 16 G 21 10.00 Fair CLR 75.9 42.1 30% 77 29.98 0.0
03 17:55 S 10 G 21 10.00 Fair CLR 76.1 42.1 30% 77 29.98 0.0
03 17:35 S 10 G 17 10.00 Fair CLR 75.7 42.1 30% 77 30 0.0
03 17:15 S 9 G 13 10.00 Fair CLR 75.7 41.4 29% 77 30.01 0.0
03 16:55 S 15 G 23 10.00 Fair CLR 75.7 41.7 30% 77 30.02 0.0
03 16:35 S 17 G 24 10.00 Fair CLR 75.7 41.9 30% 77 30.03 0.0
03 16:15 SW 14 G 21 10.00 Fair CLR 75.9 41.2 29% 77 30.04 0.0
03 15:55 S 9 G 20 10.00 Fair CLR 75.7 40.8 29% 77 30.05 0.0
03 15:35 S 15 G 20 10.00 Fair CLR 75.6 41.7 30% 77 30.06 0.0
03 15:15 S 13 G 22 10.00 Fair CLR 75.4 41.5 30% 77 30.07 0.0
03 14:55 S 17 G 23 10.00 Fair CLR 75.4 41.4 30% 77 30.09 0.0
03 14:35 S 10 G 20 10.00 Fair CLR 74.8 41.4 30% 30.09 0.0
03 13:55 S 14 G 18 10.00 Fair CLR 73.4 40.8 31% 30.12 0.0
03 13:35 S 10 G 18 10.00 Fair CLR 72.9 41.4 32% 30.13 0.0
03 13:15 S 13 G 17 10.00 Fair CLR 72.1 41.2 33% 30.14 0.0
03 12:55 S 12 G 21 10.00 Fair CLR 72 42.6 35% 30.15 0.0
03 12:35 S 14 G 18 10.00 Fair CLR 71.1 42.8 36% 30.16 0.0
03 12:15 S 13 G 17 10.00 Fair CLR 70.3 43 37% 30.17 0.0
03 11:35 SW 13 G 18 10.00 Fair CLR 68.9 44.2 41% 30.19 0.0
03 11:15 SW 14 G 20 10.00 Fair CLR 68.2 44.6 43% 30.19 0.0
03 10:55 S 13 10.00 Fair CLR 66.7 45 46% 30.2 0.0
03 10:35 SW 14 G 18 10.00 Fair CLR 65.5 45.9 49% 30.21 0.0
03 10:15 SW 12 G 16 10.00 Fair CLR 63.3 45.7 53% 30.21 0.0
03 09:55 SW 14 G 18 10.00 Fair CLR 61.7 45.7 56% 30.21 0.0
03 09:35 SW 12 10.00 Fair CLR 60.3 45.7 59% 30.21 0.0
03 09:15 SW 10 10.00 Fair CLR 58.6 45 61% 30.21 0.0
03 08:55 SW 8 10.00 Fair CLR 56.7 45.1 66% 30.21 0.0
03 08:35 S 7 10.00 Fair CLR 55.2 45.3 69% 30.2 0.0
03 08:15 S 5 10.00 Fair CLR 53.6 45.5 74% 30.19 0.0
03 07:55 S 5 10.00 Fair CLR 52.3 44.8 76% 30.19 0.0
03 07:35 S 6 10.00 Fair CLR 50.9 44.6 79% 30.18 0.0
03 07:15 S 6 10.00 Fair CLR 50.2 45.3 83% 30.17 0.0
03 06:55 S 5 10.00 Fair CLR 50.4 46 85% 30.17 0.0
03 06:35 S 5 10.00 Fair CLR 50.5 46.2 85% 30.16 0.0
03 06:15 SW 6 10.00 Fair CLR 50.7 45.9 84% 30.16 0.0
03 05:55 SW 5 10.00 Fair CLR 51.3 45.5 81% 30.16 0.0
03 05:35 S 6 10.00 Fair CLR 51.3 45.7 81% 30.16 0.0
03 05:15 SW 6 10.00 Fair CLR 51.6 45.7 80% 30.16 0.0
03 04:55 SW 5 10.00 Fair CLR 51.4 45.7 81% 30.17 0.0
03 04:35 SW 6 10.00 Fair CLR 51.8 45.7 80% 30.17 0.0
03 04:15 SW 6 10.00 Fair CLR 52.2 45.7 79% 30.17 0.0
03 03:55 SW 5 10.00 Fair CLR 53.2 45.7 76% 30.17 0.0
03 03:35 SW 6 10.00 Fair CLR 53.6 45.9 75% 30.16 0.0
03 03:15 SW 6 10.00 Fair CLR 53.8 45.9 75% 30.17 0.0
03 02:55 SW 6 10.00 Fair CLR 53.8 45.9 75% 30.17 0.0
03 02:35 SW 6 10.00 Fair CLR 54 45.9 74% 30.17 0.0
03 02:15 SW 6 10.00 Fair CLR 54.5 45.5 72% 30.18 0.0
03 01:55 SW 6 10.00 Fair CLR 54.9 45.5 71% 30.18 0.0
03 01:35 SW 5 10.00 Fair CLR 55.4 45.1 69% 30.18 0.0
03 01:15 SW 3 10.00 Fair CLR 56.1 45.5 68% 30.19 0.0
03 00:55 SW 6 10.00 Fair CLR 56.7 45.3 66% 30.19 0.0
03 00:35 SW 5 10.00 Fair CLR 57.4 45.5 65% 30.19 0.0
03 00:15 SW 6 10.00 Fair CLR 57.7 45.5 64% 30.19 0.0
02 23:55 SW 5 10.00 Fair CLR 58.1 45.5 63% 30.18 0.0
02 23:35 S 6 10.00 Fair CLR 58.1 45.5 63% 30.18 0.0
02 23:15 SW 6 10.00 Fair CLR 58.6 45.3 61% 30.18 0.0
02 22:55 SW 6 10.00 Fair CLR 59.2 45 59% 30.18 0.0
02 22:35 SW 5 10.00 Fair CLR 59.9 44.8 58% 30.17 0.0
02 22:15 SW 6 10.00 Fair CLR 60.4 44.6 56% 30.17 0.0
02 21:55 SW 5 10.00 Fair CLR 61.3 44.2 54% 30.16 0.0
02 21:35 S 6 10.00 Fair CLR 62.6 43.7 50% 30.16 0.0
02 21:15 SW 6 10.00 Fair CLR 63.7 43 47% 30.16 0.0
02 20:55 SW 7 10.00 Fair CLR 64.8 42.3 44% 30.16 0.0
02 20:35 SW 6 10.00 Fair CLR 66.2 41 40% 30.15 0.0
02 20:15 SW 5 10.00 Fair CLR 67.6 40.1 37% 30.14 0.0
02 19:55 SW 7 10.00 Fair CLR 68.2 40.3 36% 30.15 0.0
02 19:35 SW 10 10.00 Fair CLR 68.7 40.3 36% 30.14 0.0
02 19:15 SW 7 10.00 Fair CLR 69.1 39.7 34% 30.14 0.0
02 18:55 SW 7 10.00 Fair CLR 68.9 39 34% 30.14 0.0
02 18:35 W 5 10.00 Fair CLR 69.3 39.2 33% 30.15 0.0
02 18:15 W 6 10.00 Fair CLR 69.3 38.8 33% 30.15 0.0
02 17:55 SW 9 10.00 Partly Cloudy SCT065 69.3 38.7 33% 30.15 0.0
02 17:15 W 7 10.00 Partly Cloudy SCT065 69.3 38.8 33% 30.16 0.0
02 16:55 W 7 10.00 Partly Cloudy SCT065 69.1 38.8 33% 30.16 0.0
02 16:35 W 7 10.00 Partly Cloudy SCT065 SCT085 68.5 39.2 34% 30.17 0.0
02 16:15 W 9 10.00 Overcast SCT065 OVC075 68.2 40.1 36% 30.18 0.0
02 15:55 W 6 10.00 Mostly Cloudy BKN075 68.2 39 35% 30.19 0.0
02 15:35 SW 6 10.00 Mostly Cloudy SCT065 BKN075 67.6 39.2 35% 30.2 0.0
02 15:15 W 3 10.00 Mostly Cloudy SCT065 BKN075 68 40.5 37% 30.2 0.0
02 14:55 S 3 10.00 Partly Cloudy SCT065 SCT075 67.3 40.6 38% 30.2 0.0
02 14:35 Calm 10.00 Partly Cloudy SCT075 SCT080 66 39.9 39% 30.21 0.0
02 14:15 Calm 10.00 Mostly Cloudy BKN065 65.3 39.9 40% 30.22 0.0
02 13:55 Calm 10.00 Mostly Cloudy SCT055 BKN065 66.2 40.8 40% 30.22 0.0
02 13:35 SE 3 10.00 Fair CLR 65.3 41.2 41% 30.23 0.0
02 13:15 W 3 10.00 Fair CLR 64 41.7 44% 30.23 0.0
02 12:55 W 8 10.00 Fair CLR 64.2 41.7 44% 30.24 0.0
02 12:35 N 6 10.00 Partly Cloudy SCT050 63.7 41.4 44% 30.24 0.0
02 12:15 Calm 10.00 Fair CLR 63 42.1 47% 30.25 0.0
02 11:55 NW 5 10.00 Fair CLR 62.4 41.9 47% 30.26 0.0
02 11:35 NW 3 10.00 Fair CLR 61.9 41.5 47% 30.25 0.0
02 11:15 N 3 10.00 Fair CLR 61.5 41.9 49% 30.26 0.0
02 10:55 Calm 10.00 Fair CLR 60.6 42.1 51% 30.26 0.0
02 10:35 Calm 10.00 Fair CLR 60.3 41.9 51% 30.26 0.0
02 10:15 Calm 10.00 Fair CLR 59.7 41 50% 30.26 0.0
02 09:55 Calm 10.00 Fair CLR 59 41 51% 30.25 0.0
02 09:35 Calm 10.00 Fair CLR 58.3 41.4 54% 30.25 0.0
02 09:15 Calm 10.00 Fair CLR 57.2 42.3 58% 30.25 0.0
02 08:55 Calm 10.00 Fair CLR 55.9 43.2 62% 30.24 0.0
02 08:35 Calm 10.00 Fair CLR 54.1 44.2 69% 30.23 0.0
02 08:15 Calm 10.00 Fair CLR 52.5 44.2 74% 30.23 0.0
02 07:55 Calm 10.00 Fair CLR 51.4 44.4 77% 30.22 0.0
02 07:35 Calm 10.00 Fair CLR 51.3 43.3 74% 30.21 0.0
02 07:15 Calm 10.00 Fair CLR 51.1 43.7 76% 30.2 0.0
02 06:55 W 3 10.00 Fair CLR 51.1 43.9 77% 30.19 0.0
02 06:35 W 3 10.00 Partly Cloudy SCT100 51.6 44.8 78% 30.19 0.0
02 06:15 W 3 10.00 Mostly Cloudy BKN100 51.8 44.8 77% 30.19 0.0
02 05:55 W 3 10.00 Mostly Cloudy BKN100 52.2 44.4 75% 30.19 0.0
02 05:35 W 3 10.00 Partly Cloudy SCT100 52.5 44.2 74% 30.18 0.0
02 05:15 W 3 10.00 Mostly Cloudy BKN100 53.2 43.7 70% 30.18 0.0
02 04:55 Calm 10.00 Overcast OVC090 53.1 44.2 72% 30.17 0.0
02 04:35 Calm 10.00 Overcast OVC090 52.7 45 75% 30.17 0.0
02 04:15 W 3 10.00 Overcast OVC090 52.7 44.8 75% 30.17 0.0
02 03:55 W 3 10.00 Overcast OVC090 52.3 45.9 79% 30.16 0.0
02 03:35 W 3 10.00 Overcast OVC090 52.7 45.3 76% 30.16 0.0
02 03:15 Calm 10.00 Overcast OVC090 52.9 44.2 73% 30.17 0.0
02 02:55 NW 3 10.00 Overcast OVC090 52.9 44.2 73% 30.17 0.0
02 02:35 Calm 10.00 Overcast OVC090 52.9 44.8 74% 30.17 0.0
02 02:15 NW 3 10.00 Overcast SCT060 OVC090 53.1 45.5 76% 30.18 0.0
02 01:55 NW 3 10.00 Overcast BKN060 OVC090 53.4 45 73% 30.18 0.0
02 01:35 NW 3 10.00 Overcast SCT060 OVC080 53.4 44.8 73% 30.19 0.0
02 01:15 Calm 10.00 Overcast SCT060 OVC080 53.2 44.4 72% 30.19 0.0
02 00:55 Calm 10.00 Mostly Cloudy SCT060 BKN080 BKN095 53.1 44.6 73% 30.19 0.0
02 00:35 Calm 10.00 Partly Cloudy SCT095 55 41 59% 30.18 0.0
02 00:15 Calm 10.00 Fair CLR 55.4 40.1 57% 30.17 0.0
01 23:55 Calm 10.00 Fair CLR 55.4 40.6 58% 30.16 0.0
01 23:35 Calm 10.00 Fair CLR 55.2 41.2 59% 30.16 0.0
01 23:15 Calm 10.00 Partly Cloudy SCT100 55 41.5 61% 30.15 0.0
01 22:55 E 3 10.00 Mostly Cloudy BKN100 55.2 40.8 59% 30.15 0.0
01 22:35 Calm 10.00 Fair CLR 55 41.2 60% 30.14 0.0
01 22:15 E 5 10.00 Fair CLR 55.6 41 58% 30.13 0.0
01 21:55 E 3 10.00 Fair CLR 55.9 41 57% 30.13 0.0
01 21:35 E 5 10.00 Fair CLR 56.5 40.3 55% 30.12 0.0
01 21:15 E 5 10.00 Partly Cloudy SCT110 57.4 39 51% 30.12 0.0
01 20:55 E 5 10.00 Mostly Cloudy BKN110 58.3 37.9 47% 30.11 0.0
01 20:35 E 8 10.00 Overcast OVC110 58.6 38.7 48% 30.09 0.0
01 20:15 E 5 10.00 Mostly Cloudy BKN110 59 38.1 46% 30.09 0.0
01 19:55 E 9 10.00 Overcast OVC110 59.2 37.4 44% 30.07 0.0
01 19:35 E 6 10.00 Overcast OVC110 59.5 37.2 44% 30.08 0.0
01 19:15 NE 9 10.00 Mostly Cloudy BKN110 60.1 37.8 44% 30.06 0.0
01 18:55 NE 12 G 16 10.00 Partly Cloudy SCT120 60.1 38.7 45% 30.05 0.0
01 18:35 NE 10 10.00 Partly Cloudy SCT110 59.9 39.6 47% 30.05 0.0
01 18:15 NE 12 10.00 Mostly Cloudy BKN110 59.9 40.6 49% 30.05 0.0
01 17:55 NE 10 10.00 Partly Cloudy SCT110 59.7 41 50% 30.04 0.0
01 17:35 NE 13 G 18 10.00 Partly Cloudy SCT100 59.4 39.9 49% 30.04 0.0
01 17:15 NE 15 G 18 10.00 Partly Cloudy SCT100 59.7 41.9 52% 30.03 0.0
01 16:55 NE 12 G 16 10.00 Fair CLR 59.7 41.2 51% 30.03 0.0
01 16:35 E 16 10.00 Partly Cloudy SCT041 59.5 42.1 53% 30.02 0.0
01 16:15 E 17 10.00 Fair CLR 59.7 42.1 52% 30.02 0.0
01 15:55 NE 14 G 20 10.00 Fair CLR 58.6 42.6 55% 30.04 0.0
01 15:35 E 14 G 20 10.00 Partly Cloudy SCT030 58.3 43.9 59% 30.04 0.0
01 15:15 NE 15 G 21 10.00 Partly Cloudy SCT030 57.7 45 63% 30.04 0.0
01 14:55 NE 14 G 18 10.00 Partly Cloudy SCT027 57.2 45.1 64% 30.05 0.0
01 14:35 NE 14 10.00 Partly Cloudy SCT027 56.7 45.7 67% 30.06 0.0
01 14:15 E 16 10.00 Fair CLR 56.7 46.4 69% 30.06 0.0
01 13:55 E 15 10.00 Partly Cloudy SCT019 56.3 48.4 75% 30.07 0.0
01 13:35 E 9 10.00 Partly Cloudy SCT021 55.2 50.5 84% 30.08 0.0
01 12:55 NE 17 G 23 10.00 Overcast SCT008 BKN026 OVC050 53.1 52.3 97% 30.1 0.0 0.02
01 12:35 NE 10 10.00 Light Drizzle SCT010 BKN016 OVC048 52.9 52.2 97% 30.1 0.0 0.02
01 12:15 NE 10 7.00 Light Rain SCT012 BKN047 OVC050 52.5 51.8 97% 30.11 0.0 0.01
01 11:55 NE 10 7.00 Rain SCT024 SCT040 OVC050 52 51.3 97% 30.11 0.0 0.12
01 11:35 N 12 G 18 4.00 Rain SCT009 BKN014 OVC024 52 51.3 97% 30.1 0.0 0.08
01 11:15 N 9 5.00 Heavy Rain OVC011 52.5 51.6 97% 30.11 0.0 0.02
01 10:55 NE 6 G 17 10.00 Light Rain OVC010 52.3 51.8 98% 30.08 0.0
01 10:35 NE 15 G 22 10.00 Overcast BKN009 OVC016 52.2 51.4 97% 30.03 0.0
01 10:15 NE 13 10.00 Overcast OVC007 51.8 51.1 97% 30.02 0.0
01 09:55 NE 15 G 18 10.00 Overcast OVC007 51.4 50.7 97% 30.01 0.0 0.01
01 09:35 NE 15 10.00 Light Rain OVC007 51.3 50.5 97% 30.01 0.0 0.01
01 09:15 NE 13 10.00 Light Rain BKN007 OVC013 51.1 50.4 97% 30.02 0.0 0.01
01 08:55 NE 13 G 18 5.00 Rain SCT007 BKN011 OVC026 51.1 50.4 97% 30.04 0.0 0.06
01 08:35 NE 13 7.00 Rain SCT007 BKN019 OVC027 51.3 50.5 97% 30.04 0.0 0.03
01 08:15 NE 14 7.00 Light Rain SCT007 BKN017 OVC028 51.6 50.9 97% 30.02 0.0 0.02
01 07:55 E 9 7.00 Rain SCT007 BKN022 OVC031 51.8 51.1 97% 30.03 0.0 0.04
01 07:35 E 13 5.00 Light Rain SCT009 BKN014 OVC026 52 51.3 97% 30.02 0.0 0.02
01 07:15 E 12 7.00 Drizzle BKN009 BKN016 OVC020 52 51.3 97% 30.02 0.0 0.01
01 06:55 E 14 7.00 Light Rain SCT007 BKN011 OVC070 52 51.3 97% 30.01 0.0 0.04
01 06:35 NE 12 5.00 Light Rain BKN009 OVC014 52.2 51.4 97% 30 0.0 0.03
01 06:15 E 14 G 20 5.00 Light Rain SCT009 OVC016 52.2 51.4 97% 29.99 0.0 0.02
01 05:55 E 13 G 20 10.00 Light Rain BKN011 OVC020 52.3 51.6 97% 29.99 0.0 0.02
01 05:35 E 13 G 20 7.00 Light Rain BKN011 BKN047 OVC050 52.5 51.8 97% 29.98 0.0 0.01
01 05:15 E 14 10.00 Rain SCT011 BKN020 OVC090 52.7 51.8 97% 29.99 0.0
01 04:55 E 14 G 20 10.00 Light Rain SCT008 OVC020 52.7 52 97% 29.99 0.0 0.01
01 04:35 E 16 10.00 Light Rain BKN008 OVC016 52.7 52 97% 29.99 0.0 0.01
01 04:15 E 18 G 23 4.00 Light Rain OVC004 53.4 52.5 97% 29.98 0.0 0.01
01 03:55 E 13 G 20 3.00 Light Rain OVC004 53.6 52.9 97% 29.98 0.0 0.01
01 03:35 E 12 3.00 Light Rain OVC004 53.8 53.1 97% 30 0.0
01 03:15 NE 12 G 16 5.00 Fog/Mist OVC004 54 53.4 98% 30.01 0.0
Date Time (cdt) Wind (mph) Vis. (mi.) Weather Sky Cond. Air Dwpt Max. Min. Relative Humidity Wind Chill (°F) Heat Index (°F) altimeter (in) sea level (mb) 1 hr 3 hr 6 hr
6 hour
Temperature (ºF) Pressure Precipitation (in)